sensor_id;sensor_type;location;lat;lon;timestamp;P1;durP1;ratioP1;P2;durP2;ratioP2
20441;SDS011;10380;52.102;20.614;2023-06-24T00:00:08;8.73;;;4.18;;
20441;SDS011;10380;52.102;20.614;2023-06-24T00:02:38;8.05;;;4.30;;
20441;SDS011;10380;52.102;20.614;2023-06-24T00:05:10;6.25;;;3.75;;
20441;SDS011;10380;52.102;20.614;2023-06-24T00:07:37;8.00;;;4.22;;
20441;SDS011;10380;52.102;20.614;2023-06-24T00:10:14;8.10;;;4.22;;
20441;SDS011;10380;52.102;20.614;2023-06-24T00:12:44;7.82;;;4.57;;
20441;SDS011;10380;52.102;20.614;2023-06-24T00:15:11;5.40;;;4.10;;
20441;SDS011;10380;52.102;20.614;2023-06-24T00:17:38;5.43;;;4.20;;
20441;SDS011;10380;52.102;20.614;2023-06-24T00:20:05;6.70;;;4.28;;
20441;SDS011;10380;52.102;20.614;2023-06-24T00:22:37;6.80;;;4.35;;
20441;SDS011;10380;52.102;20.614;2023-06-24T00:25:14;4.70;;;3.95;;
20441;SDS011;10380;52.102;20.614;2023-06-24T00:27:41;6.72;;;4.30;;
20441;SDS011;10380;52.102;20.614;2023-06-24T00:30:09;6.93;;;4.05;;
20441;SDS011;10380;52.102;20.614;2023-06-24T00:32:36;9.75;;;4.03;;
20441;SDS011;10380;52.102;20.614;2023-06-24T00:35:03;10.63;;;4.25;;
20441;SDS011;10380;52.102;20.614;2023-06-24T00:37:30;6.53;;;4.80;;
20441;SDS011;10380;52.102;20.614;2023-06-24T00:39:57;5.85;;;4.10;;
20441;SDS011;10380;52.102;20.614;2023-06-24T00:42:34;8.15;;;4.43;;
20441;SDS011;10380;52.102;20.614;2023-06-24T00:45:01;6.25;;;4.78;;
20441;SDS011;10380;52.102;20.614;2023-06-24T00:47:31;6.45;;;4.80;;
20441;SDS011;10380;52.102;20.614;2023-06-24T00:50:01;5.18;;;4.28;;
20441;SDS011;10380;52.102;20.614;2023-06-24T00:52:28;9.95;;;4.88;;
20441;SDS011;10380;52.102;20.614;2023-06-24T00:54:55;7.47;;;4.63;;
20441;SDS011;10380;52.102;20.614;2023-06-24T00:57:22;6.43;;;4.57;;
20441;SDS011;10380;52.102;20.614;2023-06-24T00:59:52;7.43;;;4.65;;
20441;SDS011;10380;52.102;20.614;2023-06-24T01:02:20;8.27;;;4.88;;
20441;SDS011;10380;52.102;20.614;2023-06-24T01:04:48;7.60;;;5.00;;
20441;SDS011;10380;52.102;20.614;2023-06-24T01:07:17;7.45;;;5.07;;
20441;SDS011;10380;52.102;20.614;2023-06-24T01:09:44;8.57;;;5.15;;
20441;SDS011;10380;52.102;20.614;2023-06-24T01:12:11;5.50;;;4.85;;
20441;SDS011;10380;52.102;20.614;2023-06-24T01:14:38;7.82;;;5.22;;
20441;SDS011;10380;52.102;20.614;2023-06-24T01:31:39;9.02;;;5.47;;
20441;SDS011;10380;52.102;20.614;2023-06-24T01:34:15;10.60;;;5.55;;
20441;SDS011;10380;52.102;20.614;2023-06-24T01:37:11;9.70;;;5.65;;
20441;SDS011;10380;52.102;20.614;2023-06-24T01:39:48;7.95;;;5.47;;
20441;SDS011;10380;52.102;20.614;2023-06-24T01:42:22;6.05;;;5.00;;
20441;SDS011;10380;52.102;20.614;2023-06-24T01:44:49;7.50;;;5.18;;
20441;SDS011;10380;52.102;20.614;2023-06-24T01:47:18;8.85;;;5.90;;
20441;SDS011;10380;52.102;20.614;2023-06-24T01:49:49;6.45;;;4.47;;
20441;SDS011;10380;52.102;20.614;2023-06-24T01:52:23;8.02;;;5.32;;
20441;SDS011;10380;52.102;20.614;2023-06-24T01:54:54;7.53;;;4.82;;
20441;SDS011;10380;52.102;20.614;2023-06-24T01:57:22;8.90;;;5.15;;
20441;SDS011;10380;52.102;20.614;2023-06-24T01:59:50;10.02;;;5.93;;
20441;SDS011;10380;52.102;20.614;2023-06-24T02:02:21;5.68;;;4.63;;
20441;SDS011;10380;52.102;20.614;2023-06-24T02:04:51;7.55;;;5.70;;
20441;SDS011;10380;52.102;20.614;2023-06-24T02:07:20;6.60;;;4.93;;
20441;SDS011;10380;52.102;20.614;2023-06-24T02:09:48;6.80;;;4.95;;
20441;SDS011;10380;52.102;20.614;2023-06-24T02:12:16;6.78;;;4.35;;
20441;SDS011;10380;52.102;20.614;2023-06-24T02:14:44;5.63;;;4.80;;
20441;SDS011;10380;52.102;20.614;2023-06-24T02:17:11;6.20;;;4.78;;
20441;SDS011;10380;52.102;20.614;2023-06-24T02:19:39;5.70;;;4.97;;
20441;SDS011;10380;52.102;20.614;2023-06-24T02:22:08;7.07;;;5.07;;
20441;SDS011;10380;52.102;20.614;2023-06-24T02:24:36;5.45;;;4.63;;
20441;SDS011;10380;52.102;20.614;2023-06-24T02:27:05;7.07;;;4.35;;
20441;SDS011;10380;52.102;20.614;2023-06-24T02:29:33;10.02;;;5.20;;
20441;SDS011;10380;52.102;20.614;2023-06-24T02:32:02;8.63;;;5.15;;
20441;SDS011;10380;52.102;20.614;2023-06-24T02:34:29;9.70;;;5.35;;
20441;SDS011;10380;52.102;20.614;2023-06-24T02:36:56;8.20;;;5.60;;
20441;SDS011;10380;52.102;20.614;2023-06-24T02:39:23;6.05;;;5.22;;
20441;SDS011;10380;52.102;20.614;2023-06-24T02:41:50;5.60;;;3.95;;
20441;SDS011;10380;52.102;20.614;2023-06-24T02:44:16;9.18;;;5.05;;
20441;SDS011;10380;52.102;20.614;2023-06-24T02:46:43;8.70;;;4.85;;
20441;SDS011;10380;52.102;20.614;2023-06-24T02:49:12;7.57;;;5.50;;
20441;SDS011;10380;52.102;20.614;2023-06-24T02:51:41;8.80;;;5.07;;
20441;SDS011;10380;52.102;20.614;2023-06-24T02:54:08;8.70;;;4.78;;
20441;SDS011;10380;52.102;20.614;2023-06-24T02:56:36;10.68;;;5.82;;
20441;SDS011;10380;52.102;20.614;2023-06-24T02:59:09;6.03;;;4.90;;
20441;SDS011;10380;52.102;20.614;2023-06-24T03:01:36;7.65;;;4.60;;
20441;SDS011;10380;52.102;20.614;2023-06-24T03:04:05;7.00;;;4.57;;
20441;SDS011;10380;52.102;20.614;2023-06-24T03:06:32;6.30;;;5.10;;
20441;SDS011;10380;52.102;20.614;2023-06-24T03:09:02;7.13;;;5.50;;
20441;SDS011;10380;52.102;20.614;2023-06-24T03:11:30;6.78;;;4.80;;
20441;SDS011;10380;52.102;20.614;2023-06-24T03:13:57;7.72;;;4.40;;
20441;SDS011;10380;52.102;20.614;2023-06-24T03:16:25;7.32;;;4.95;;
20441;SDS011;10380;52.102;20.614;2023-06-24T03:18:52;6.85;;;4.57;;
20441;SDS011;10380;52.102;20.614;2023-06-24T03:21:19;6.30;;;4.90;;
20441;SDS011;10380;52.102;20.614;2023-06-24T03:23:46;8.13;;;4.95;;
20441;SDS011;10380;52.102;20.614;2023-06-24T03:26:12;7.88;;;4.53;;
20441;SDS011;10380;52.102;20.614;2023-06-24T03:28:39;6.18;;;4.63;;
20441;SDS011;10380;52.102;20.614;2023-06-24T03:31:06;7.38;;;5.25;;
20441;SDS011;10380;52.102;20.614;2023-06-24T03:33:33;6.25;;;5.18;;
20441;SDS011;10380;52.102;20.614;2023-06-24T03:36:00;7.10;;;4.90;;
20441;SDS011;10380;52.102;20.614;2023-06-24T03:38:26;6.78;;;5.03;;
20441;SDS011;10380;52.102;20.614;2023-06-24T03:40:54;8.07;;;4.95;;
20441;SDS011;10380;52.102;20.614;2023-06-24T03:43:21;6.78;;;4.35;;
20441;SDS011;10380;52.102;20.614;2023-06-24T03:45:47;6.63;;;4.63;;
20441;SDS011;10380;52.102;20.614;2023-06-24T03:48:14;6.43;;;4.57;;
20441;SDS011;10380;52.102;20.614;2023-06-24T03:50:41;5.70;;;3.95;;
20441;SDS011;10380;52.102;20.614;2023-06-24T03:53:08;6.70;;;5.10;;
20441;SDS011;10380;52.102;20.614;2023-06-24T03:55:35;6.90;;;4.50;;
20441;SDS011;10380;52.102;20.614;2023-06-24T03:58:02;7.22;;;5.00;;
20441;SDS011;10380;52.102;20.614;2023-06-24T04:00:29;7.93;;;4.57;;
20441;SDS011;10380;52.102;20.614;2023-06-24T04:02:55;7.10;;;5.15;;
20441;SDS011;10380;52.102;20.614;2023-06-24T04:05:22;8.73;;;5.32;;
20441;SDS011;10380;52.102;20.614;2023-06-24T04:07:50;5.60;;;4.65;;
20441;SDS011;10380;52.102;20.614;2023-06-24T04:10:18;7.43;;;5.25;;
20441;SDS011;10380;52.102;20.614;2023-06-24T04:12:45;7.50;;;4.55;;
20441;SDS011;10380;52.102;20.614;2023-06-24T04:15:12;6.85;;;4.95;;
20441;SDS011;10380;52.102;20.614;2023-06-24T04:17:39;6.93;;;4.97;;
20441;SDS011;10380;52.102;20.614;2023-06-24T04:20:06;8.80;;;6.20;;
20441;SDS011;10380;52.102;20.614;2023-06-24T04:22:39;8.38;;;5.80;;
20441;SDS011;10380;52.102;20.614;2023-06-24T04:25:07;8.02;;;5.72;;
20441;SDS011;10380;52.102;20.614;2023-06-24T04:27:35;10.18;;;5.20;;
20441;SDS011;10380;52.102;20.614;2023-06-24T04:30:02;9.10;;;4.85;;
20441;SDS011;10380;52.102;20.614;2023-06-24T04:32:30;7.13;;;5.30;;
20441;SDS011;10380;52.102;20.614;2023-06-24T04:34:58;9.27;;;5.47;;
20441;SDS011;10380;52.102;20.614;2023-06-24T04:37:25;9.57;;;5.60;;
20441;SDS011;10380;52.102;20.614;2023-06-24T04:39:52;7.90;;;5.35;;
20441;SDS011;10380;52.102;20.614;2023-06-24T04:42:19;6.68;;;4.97;;
20441;SDS011;10380;52.102;20.614;2023-06-24T04:44:46;5.57;;;4.55;;
20441;SDS011;10380;52.102;20.614;2023-06-24T04:47:18;6.65;;;4.90;;
20441;SDS011;10380;52.102;20.614;2023-06-24T04:49:45;7.07;;;5.43;;
20441;SDS011;10380;52.102;20.614;2023-06-24T04:52:12;8.57;;;4.90;;
20441;SDS011;10380;52.102;20.614;2023-06-24T04:54:39;7.63;;;4.85;;
20441;SDS011;10380;52.102;20.614;2023-06-24T04:57:07;10.48;;;5.53;;
20441;SDS011;10380;52.102;20.614;2023-06-24T04:59:35;9.68;;;5.55;;
20441;SDS011;10380;52.102;20.614;2023-06-24T05:02:04;8.85;;;5.03;;
20441;SDS011;10380;52.102;20.614;2023-06-24T05:04:31;8.90;;;5.05;;
20441;SDS011;10380;52.102;20.614;2023-06-24T05:06:59;6.82;;;5.22;;
20441;SDS011;10380;52.102;20.614;2023-06-24T05:09:26;8.93;;;4.78;;
20441;SDS011;10380;52.102;20.614;2023-06-24T05:11:52;7.43;;;4.80;;
20441;SDS011;10380;52.102;20.614;2023-06-24T05:14:19;7.38;;;5.00;;
20441;SDS011;10380;52.102;20.614;2023-06-24T05:16:46;5.90;;;5.05;;
20441;SDS011;10380;52.102;20.614;2023-06-24T05:19:13;8.52;;;5.20;;
20441;SDS011;10380;52.102;20.614;2023-06-24T05:21:40;7.32;;;5.32;;
20441;SDS011;10380;52.102;20.614;2023-06-24T05:24:07;7.25;;;4.95;;
20441;SDS011;10380;52.102;20.614;2023-06-24T05:26:33;10.15;;;5.55;;
20441;SDS011;10380;52.102;20.614;2023-06-24T05:29:00;11.27;;;5.43;;
20441;SDS011;10380;52.102;20.614;2023-06-24T05:31:27;8.05;;;5.45;;
20441;SDS011;10380;52.102;20.614;2023-06-24T05:33:54;8.13;;;5.28;;
20441;SDS011;10380;52.102;20.614;2023-06-24T05:36:20;8.63;;;6.10;;
20441;SDS011;10380;52.102;20.614;2023-06-24T05:38:47;6.47;;;5.00;;
20441;SDS011;10380;52.102;20.614;2023-06-24T05:41:14;8.10;;;5.50;;
20441;SDS011;10380;52.102;20.614;2023-06-24T05:43:42;6.57;;;5.10;;
20441;SDS011;10380;52.102;20.614;2023-06-24T05:46:10;8.63;;;5.32;;
20441;SDS011;10380;52.102;20.614;2023-06-24T05:48:37;7.93;;;5.53;;
20441;SDS011;10380;52.102;20.614;2023-06-24T05:51:03;8.25;;;5.40;;
20441;SDS011;10380;52.102;20.614;2023-06-24T05:53:30;6.60;;;5.50;;
20441;SDS011;10380;52.102;20.614;2023-06-24T05:55:57;8.07;;;5.55;;
20441;SDS011;10380;52.102;20.614;2023-06-24T05:58:24;7.13;;;5.90;;
20441;SDS011;10380;52.102;20.614;2023-06-24T06:00:51;8.32;;;5.38;;
20441;SDS011;10380;52.102;20.614;2023-06-24T06:03:18;6.80;;;5.05;;
20441;SDS011;10380;52.102;20.614;2023-06-24T06:05:45;7.50;;;5.63;;
20441;SDS011;10380;52.102;20.614;2023-06-24T06:08:12;8.10;;;5.78;;
20441;SDS011;10380;52.102;20.614;2023-06-24T06:10:38;9.13;;;6.30;;
20441;SDS011;10380;52.102;20.614;2023-06-24T06:13:05;7.00;;;4.95;;
20441;SDS011;10380;52.102;20.614;2023-06-24T06:15:32;9.13;;;5.70;;
20441;SDS011;10380;52.102;20.614;2023-06-24T06:17:59;7.78;;;5.40;;
20441;SDS011;10380;52.102;20.614;2023-06-24T06:20:26;6.90;;;5.32;;
20441;SDS011;10380;52.102;20.614;2023-06-24T06:22:53;7.35;;;5.57;;
20441;SDS011;10380;52.102;20.614;2023-06-24T06:25:20;6.93;;;5.40;;
20441;SDS011;10380;52.102;20.614;2023-06-24T06:27:47;7.90;;;5.70;;
20441;SDS011;10380;52.102;20.614;2023-06-24T06:30:14;7.82;;;5.63;;
20441;SDS011;10380;52.102;20.614;2023-06-24T06:32:41;6.78;;;5.22;;
20441;SDS011;10380;52.102;20.614;2023-06-24T06:35:08;6.82;;;4.78;;
20441;SDS011;10380;52.102;20.614;2023-06-24T06:37:34;6.30;;;4.70;;
20441;SDS011;10380;52.102;20.614;2023-06-24T06:40:01;7.68;;;5.22;;
20441;SDS011;10380;52.102;20.614;2023-06-24T06:42:29;7.70;;;5.13;;
20441;SDS011;10380;52.102;20.614;2023-06-24T06:44:56;7.20;;;4.82;;
20441;SDS011;10380;52.102;20.614;2023-06-24T06:47:23;9.30;;;5.35;;
20441;SDS011;10380;52.102;20.614;2023-06-24T06:49:50;6.45;;;5.07;;
20441;SDS011;10380;52.102;20.614;2023-06-24T06:52:16;6.43;;;5.32;;
20441;SDS011;10380;52.102;20.614;2023-06-24T06:54:43;8.25;;;4.25;;
20441;SDS011;10380;52.102;20.614;2023-06-24T06:57:10;5.38;;;3.95;;
20441;SDS011;10380;52.102;20.614;2023-06-24T06:59:37;5.72;;;4.07;;
20441;SDS011;10380;52.102;20.614;2023-06-24T07:02:04;7.72;;;4.63;;
20441;SDS011;10380;52.102;20.614;2023-06-24T07:04:31;6.90;;;4.82;;
20441;SDS011;10380;52.102;20.614;2023-06-24T07:06:58;6.70;;;4.63;;
20441;SDS011;10380;52.102;20.614;2023-06-24T07:09:25;5.80;;;4.95;;
20441;SDS011;10380;52.102;20.614;2023-06-24T07:11:52;8.23;;;5.72;;
20441;SDS011;10380;52.102;20.614;2023-06-24T07:14:19;7.85;;;5.35;;
20441;SDS011;10380;52.102;20.614;2023-06-24T07:16:46;7.93;;;4.85;;
20441;SDS011;10380;52.102;20.614;2023-06-24T07:19:13;7.88;;;5.18;;
20441;SDS011;10380;52.102;20.614;2023-06-24T07:21:40;8.15;;;4.90;;
20441;SDS011;10380;52.102;20.614;2023-06-24T07:24:06;7.70;;;4.97;;
20441;SDS011;10380;52.102;20.614;2023-06-24T07:26:33;7.80;;;5.40;;
20441;SDS011;10380;52.102;20.614;2023-06-24T07:29:00;8.57;;;4.70;;
20441;SDS011;10380;52.102;20.614;2023-06-24T07:31:35;6.35;;;4.15;;
20441;SDS011;10380;52.102;20.614;2023-06-24T07:34:02;7.03;;;4.13;;
20441;SDS011;10380;52.102;20.614;2023-06-24T07:36:29;5.80;;;4.13;;
20441;SDS011;10380;52.102;20.614;2023-06-24T07:38:56;5.53;;;4.85;;
20441;SDS011;10380;52.102;20.614;2023-06-24T07:41:23;5.88;;;4.95;;
20441;SDS011;10380;52.102;20.614;2023-06-24T07:43:50;7.43;;;5.13;;
20441;SDS011;10380;52.102;20.614;2023-06-24T07:46:17;5.72;;;4.35;;
20441;SDS011;10380;52.102;20.614;2023-06-24T07:48:44;4.63;;;4.03;;
20441;SDS011;10380;52.102;20.614;2023-06-24T07:51:11;6.18;;;4.35;;
20441;SDS011;10380;52.102;20.614;2023-06-24T07:53:38;4.75;;;3.88;;
20441;SDS011;10380;52.102;20.614;2023-06-24T07:56:04;6.35;;;4.13;;
20441;SDS011;10380;52.102;20.614;2023-06-24T07:58:31;5.60;;;3.75;;
20441;SDS011;10380;52.102;20.614;2023-06-24T08:01:00;6.50;;;4.32;;
20441;SDS011;10380;52.102;20.614;2023-06-24T08:03:26;4.13;;;3.20;;
20441;SDS011;10380;52.102;20.614;2023-06-24T08:05:55;4.63;;;3.28;;
20441;SDS011;10380;52.102;20.614;2023-06-24T08:08:22;7.22;;;4.03;;
20441;SDS011;10380;52.102;20.614;2023-06-24T08:10:49;3.90;;;3.42;;
20441;SDS011;10380;52.102;20.614;2023-06-24T08:13:16;6.43;;;3.75;;
20441;SDS011;10380;52.102;20.614;2023-06-24T08:15:43;6.78;;;3.50;;
20441;SDS011;10380;52.102;20.614;2023-06-24T08:18:11;5.80;;;4.00;;
20441;SDS011;10380;52.102;20.614;2023-06-24T08:20:37;4.60;;;3.65;;
20441;SDS011;10380;52.102;20.614;2023-06-24T08:23:04;4.90;;;3.83;;
20441;SDS011;10380;52.102;20.614;2023-06-24T08:25:31;4.97;;;3.53;;
20441;SDS011;10380;52.102;20.614;2023-06-24T08:27:59;5.72;;;3.88;;
20441;SDS011;10380;52.102;20.614;2023-06-24T08:30:25;5.53;;;4.30;;
20441;SDS011;10380;52.102;20.614;2023-06-24T08:32:52;6.43;;;3.50;;
20441;SDS011;10380;52.102;20.614;2023-06-24T08:35:19;4.63;;;3.80;;
20441;SDS011;10380;52.102;20.614;2023-06-24T08:37:46;6.85;;;4.15;;
20441;SDS011;10380;52.102;20.614;2023-06-24T08:40:13;4.72;;;3.88;;
20441;SDS011;10380;52.102;20.614;2023-06-24T08:42:39;6.93;;;3.20;;
20441;SDS011;10380;52.102;20.614;2023-06-24T08:45:06;6.38;;;3.38;;
20441;SDS011;10380;52.102;20.614;2023-06-24T08:47:33;4.53;;;3.83;;
20441;SDS011;10380;52.102;20.614;2023-06-24T08:50:03;4.78;;;2.67;;
20441;SDS011;10380;52.102;20.614;2023-06-24T08:52:35;4.78;;;3.20;;
20441;SDS011;10380;52.102;20.614;2023-06-24T08:55:03;5.68;;;4.05;;
20441;SDS011;10380;52.102;20.614;2023-06-24T08:57:32;5.15;;;3.15;;
20441;SDS011;10380;52.102;20.614;2023-06-24T08:59:59;10.32;;;3.83;;
20441;SDS011;10380;52.102;20.614;2023-06-24T09:02:26;3.83;;;3.00;;
20441;SDS011;10380;52.102;20.614;2023-06-24T09:04:54;6.30;;;3.80;;
20441;SDS011;10380;52.102;20.614;2023-06-24T09:07:27;5.00;;;4.10;;
20441;SDS011;10380;52.102;20.614;2023-06-24T09:09:54;5.53;;;3.65;;
20441;SDS011;10380;52.102;20.614;2023-06-24T09:12:23;5.03;;;3.72;;
20441;SDS011;10380;52.102;20.614;2023-06-24T09:14:51;4.95;;;3.65;;
20441;SDS011;10380;52.102;20.614;2023-06-24T09:17:19;5.25;;;4.05;;
20441;SDS011;10380;52.102;20.614;2023-06-24T09:19:49;5.00;;;3.65;;
20441;SDS011;10380;52.102;20.614;2023-06-24T09:22:17;5.43;;;3.53;;
20441;SDS011;10380;52.102;20.614;2023-06-24T09:24:45;5.97;;;3.50;;
20441;SDS011;10380;52.102;20.614;2023-06-24T09:27:16;4.03;;;3.63;;
20441;SDS011;10380;52.102;20.614;2023-06-24T09:29:46;6.68;;;3.85;;
20441;SDS011;10380;52.102;20.614;2023-06-24T09:32:13;5.90;;;4.28;;
20441;SDS011;10380;52.102;20.614;2023-06-24T09:34:40;5.50;;;4.07;;
20441;SDS011;10380;52.102;20.614;2023-06-24T09:37:07;5.22;;;4.45;;
20441;SDS011;10380;52.102;20.614;2023-06-24T09:39:38;7.47;;;4.10;;
20441;SDS011;10380;52.102;20.614;2023-06-24T09:42:06;4.88;;;4.28;;
20441;SDS011;10380;52.102;20.614;2023-06-24T09:44:34;7.28;;;5.60;;
20441;SDS011;10380;52.102;20.614;2023-06-24T09:47:00;7.60;;;4.93;;
20441;SDS011;10380;52.102;20.614;2023-06-24T09:49:28;7.18;;;4.05;;
20441;SDS011;10380;52.102;20.614;2023-06-24T09:51:56;11.73;;;5.35;;
20441;SDS011;10380;52.102;20.614;2023-06-24T09:54:27;6.82;;;4.45;;
20441;SDS011;10380;52.102;20.614;2023-06-24T09:57:00;5.18;;;4.13;;
20441;SDS011;10380;52.102;20.614;2023-06-24T09:59:30;6.35;;;3.85;;
20441;SDS011;10380;52.102;20.614;2023-06-24T10:02:00;6.30;;;3.78;;
20441;SDS011;10380;52.102;20.614;2023-06-24T10:04:28;6.60;;;4.20;;
20441;SDS011;10380;52.102;20.614;2023-06-24T10:06:56;6.05;;;3.50;;
20441;SDS011;10380;52.102;20.614;2023-06-24T10:09:24;5.20;;;3.80;;
20441;SDS011;10380;52.102;20.614;2023-06-24T10:11:50;6.00;;;4.07;;
20441;SDS011;10380;52.102;20.614;2023-06-24T10:14:17;7.97;;;4.13;;
20441;SDS011;10380;52.102;20.614;2023-06-24T10:16:44;5.78;;;3.90;;
20441;SDS011;10380;52.102;20.614;2023-06-24T10:19:13;4.25;;;3.47;;
20441;SDS011;10380;52.102;20.614;2023-06-24T10:21:52;8.90;;;4.00;;
20441;SDS011;10380;52.102;20.614;2023-06-24T10:24:30;4.43;;;3.30;;
20441;SDS011;10380;52.102;20.614;2023-06-24T10:27:01;4.97;;;4.13;;
20441;SDS011;10380;52.102;20.614;2023-06-24T10:32:08;5.35;;;4.20;;
20441;SDS011;10380;52.102;20.614;2023-06-24T10:47:37;7.47;;;4.88;;
20441;SDS011;10380;52.102;20.614;2023-06-24T10:50:12;5.95;;;4.88;;
20441;SDS011;10380;52.102;20.614;2023-06-24T10:52:41;10.40;;;4.75;;
20441;SDS011;10380;52.102;20.614;2023-06-24T10:55:14;5.75;;;4.68;;
20441;SDS011;10380;52.102;20.614;2023-06-24T10:57:42;5.95;;;4.35;;
20441;SDS011;10380;52.102;20.614;2023-06-24T11:00:10;6.70;;;4.68;;
20441;SDS011;10380;52.102;20.614;2023-06-24T11:02:38;5.93;;;4.40;;
20441;SDS011;10380;52.102;20.614;2023-06-24T11:05:05;6.68;;;4.57;;
20441;SDS011;10380;52.102;20.614;2023-06-24T11:07:33;7.22;;;4.30;;
20441;SDS011;10380;52.102;20.614;2023-06-24T11:10:02;7.82;;;4.45;;
20441;SDS011;10380;52.102;20.614;2023-06-24T11:12:41;5.28;;;4.47;;
20441;SDS011;10380;52.102;20.614;2023-06-24T11:15:10;7.47;;;4.07;;
20441;SDS011;10380;52.102;20.614;2023-06-24T11:17:38;7.68;;;4.68;;
20441;SDS011;10380;52.102;20.614;2023-06-24T11:20:07;5.63;;;4.25;;
20441;SDS011;10380;52.102;20.614;2023-06-24T11:22:35;5.78;;;4.55;;
20441;SDS011;10380;52.102;20.614;2023-06-24T11:25:02;6.97;;;4.82;;
20441;SDS011;10380;52.102;20.614;2023-06-24T11:27:29;7.88;;;4.45;;
20441;SDS011;10380;52.102;20.614;2023-06-24T11:29:58;8.52;;;4.80;;
20441;SDS011;10380;52.102;20.614;2023-06-24T11:32:34;9.10;;;5.50;;
20441;SDS011;10380;52.102;20.614;2023-06-24T11:35:03;8.27;;;6.72;;
20441;SDS011;10380;52.102;20.614;2023-06-24T11:37:31;9.75;;;6.63;;
20441;SDS011;10380;52.102;20.614;2023-06-24T11:40:02;11.23;;;7.57;;
20441;SDS011;10380;52.102;20.614;2023-06-24T11:42:36;10.93;;;7.45;;
20441;SDS011;10380;52.102;20.614;2023-06-24T11:45:08;12.18;;;6.88;;
20441;SDS011;10380;52.102;20.614;2023-06-24T11:47:42;9.63;;;6.85;;
20441;SDS011;10380;52.102;20.614;2023-06-24T11:50:09;9.10;;;7.35;;
20441;SDS011;10380;52.102;20.614;2023-06-24T11:52:40;11.77;;;7.93;;
20441;SDS011;10380;52.102;20.614;2023-06-24T11:55:18;10.48;;;7.35;;
20441;SDS011;10380;52.102;20.614;2023-06-24T11:57:51;9.13;;;7.00;;
20441;SDS011;10380;52.102;20.614;2023-06-24T12:00:30;10.35;;;7.30;;
20441;SDS011;10380;52.102;20.614;2023-06-24T12:02:59;8.88;;;6.45;;
20441;SDS011;10380;52.102;20.614;2023-06-24T12:05:31;8.02;;;6.93;;
20441;SDS011;10380;52.102;20.614;2023-06-24T12:10:37;9.27;;;6.78;;
20441;SDS011;10380;52.102;20.614;2023-06-24T12:13:05;9.10;;;6.88;;
20441;SDS011;10380;52.102;20.614;2023-06-24T12:15:34;8.90;;;6.55;;
20441;SDS011;10380;52.102;20.614;2023-06-24T12:18:01;11.90;;;7.28;;
20441;SDS011;10380;52.102;20.614;2023-06-24T12:20:29;11.88;;;6.32;;
20441;SDS011;10380;52.102;20.614;2023-06-24T12:23:02;8.73;;;6.00;;
20441;SDS011;10380;52.102;20.614;2023-06-24T12:25:32;11.80;;;6.90;;
20441;SDS011;10380;52.102;20.614;2023-06-24T12:27:59;8.98;;;6.57;;
20441;SDS011;10380;52.102;20.614;2023-06-24T12:30:26;8.73;;;6.57;;
20441;SDS011;10380;52.102;20.614;2023-06-24T12:32:54;7.72;;;6.75;;
20441;SDS011;10380;52.102;20.614;2023-06-24T12:35:21;9.30;;;6.85;;
20441;SDS011;10380;52.102;20.614;2023-06-24T12:37:52;9.82;;;6.65;;
20441;SDS011;10380;52.102;20.614;2023-06-24T12:40:19;9.93;;;6.65;;
20441;SDS011;10380;52.102;20.614;2023-06-24T12:42:46;8.98;;;6.30;;
20441;SDS011;10380;52.102;20.614;2023-06-24T12:45:13;9.95;;;6.85;;
20441;SDS011;10380;52.102;20.614;2023-06-24T12:47:39;10.43;;;6.45;;
20441;SDS011;10380;52.102;20.614;2023-06-24T12:50:07;9.45;;;6.70;;
20441;SDS011;10380;52.102;20.614;2023-06-24T12:52:35;8.70;;;5.10;;
20441;SDS011;10380;52.102;20.614;2023-06-24T12:55:03;6.93;;;6.05;;
20441;SDS011;10380;52.102;20.614;2023-06-24T12:57:31;6.80;;;5.82;;
20441;SDS011;10380;52.102;20.614;2023-06-24T12:59:57;8.90;;;5.97;;
20441;SDS011;10380;52.102;20.614;2023-06-24T13:02:24;7.88;;;5.15;;
20441;SDS011;10380;52.102;20.614;2023-06-24T13:04:51;6.43;;;5.38;;
20441;SDS011;10380;52.102;20.614;2023-06-24T13:07:18;9.48;;;4.85;;
20441;SDS011;10380;52.102;20.614;2023-06-24T13:09:45;5.53;;;4.68;;
20441;SDS011;10380;52.102;20.614;2023-06-24T13:12:12;7.45;;;3.88;;
20441;SDS011;10380;52.102;20.614;2023-06-24T13:14:38;5.93;;;3.78;;
20441;SDS011;10380;52.102;20.614;2023-06-24T13:17:05;5.25;;;4.03;;
20441;SDS011;10380;52.102;20.614;2023-06-24T13:19:32;6.80;;;4.00;;
20441;SDS011;10380;52.102;20.614;2023-06-24T13:21:59;6.88;;;3.78;;
20441;SDS011;10380;52.102;20.614;2023-06-24T13:24:26;5.15;;;3.53;;
20441;SDS011;10380;52.102;20.614;2023-06-24T13:26:53;4.40;;;3.08;;
20441;SDS011;10380;52.102;20.614;2023-06-24T13:29:20;5.07;;;3.20;;
20441;SDS011;10380;52.102;20.614;2023-06-24T13:31:47;4.45;;;3.22;;
20441;SDS011;10380;52.102;20.614;2023-06-24T13:34:14;5.93;;;3.08;;
20441;SDS011;10380;52.102;20.614;2023-06-24T13:36:41;5.53;;;3.45;;
20441;SDS011;10380;52.102;20.614;2023-06-24T13:39:08;3.30;;;2.67;;
20441;SDS011;10380;52.102;20.614;2023-06-24T13:41:38;4.75;;;3.10;;
20441;SDS011;10380;52.102;20.614;2023-06-24T13:44:05;6.43;;;3.72;;
20441;SDS011;10380;52.102;20.614;2023-06-24T13:46:32;3.60;;;3.05;;
20441;SDS011;10380;52.102;20.614;2023-06-24T13:48:59;7.93;;;3.20;;
20441;SDS011;10380;52.102;20.614;2023-06-24T13:51:31;6.65;;;3.10;;
20441;SDS011;10380;52.102;20.614;2023-06-24T13:53:58;7.07;;;3.28;;
20441;SDS011;10380;52.102;20.614;2023-06-24T13:56:25;5.43;;;3.30;;
20441;SDS011;10380;52.102;20.614;2023-06-24T13:58:53;4.78;;;3.00;;
20441;SDS011;10380;52.102;20.614;2023-06-24T14:01:20;4.95;;;3.00;;
20441;SDS011;10380;52.102;20.614;2023-06-24T14:03:48;4.38;;;3.33;;
20441;SDS011;10380;52.102;20.614;2023-06-24T14:06:19;4.57;;;3.47;;
20441;SDS011;10380;52.102;20.614;2023-06-24T14:08:46;4.53;;;3.38;;
20441;SDS011;10380;52.102;20.614;2023-06-24T14:11:13;5.45;;;4.28;;
20441;SDS011;10380;52.102;20.614;2023-06-24T14:13:41;5.28;;;4.25;;
20441;SDS011;10380;52.102;20.614;2023-06-24T14:16:08;4.65;;;3.78;;
20441;SDS011;10380;52.102;20.614;2023-06-24T14:18:36;6.30;;;4.10;;
20441;SDS011;10380;52.102;20.614;2023-06-24T14:21:04;6.00;;;4.10;;
20441;SDS011;10380;52.102;20.614;2023-06-24T14:23:32;5.65;;;4.10;;
20441;SDS011;10380;52.102;20.614;2023-06-24T14:25:59;7.65;;;3.85;;
20441;SDS011;10380;52.102;20.614;2023-06-24T14:28:26;7.15;;;4.15;;
20441;SDS011;10380;52.102;20.614;2023-06-24T14:30:53;6.18;;;4.15;;
20441;SDS011;10380;52.102;20.614;2023-06-24T14:33:20;7.95;;;4.85;;
20441;SDS011;10380;52.102;20.614;2023-06-24T14:35:47;6.47;;;4.53;;
20441;SDS011;10380;52.102;20.614;2023-06-24T14:38:14;6.85;;;4.65;;
20441;SDS011;10380;52.102;20.614;2023-06-24T14:40:41;6.25;;;4.47;;
20441;SDS011;10380;52.102;20.614;2023-06-24T14:43:08;13.63;;;6.70;;
20441;SDS011;10380;52.102;20.614;2023-06-24T14:45:34;8.73;;;5.45;;
20441;SDS011;10380;52.102;20.614;2023-06-24T14:48:01;10.98;;;4.72;;
20441;SDS011;10380;52.102;20.614;2023-06-24T14:50:28;6.85;;;4.75;;
20441;SDS011;10380;52.102;20.614;2023-06-24T14:52:55;9.40;;;4.55;;
20441;SDS011;10380;52.102;20.614;2023-06-24T14:55:22;6.65;;;4.57;;
20441;SDS011;10380;52.102;20.614;2023-06-24T14:57:49;7.13;;;3.95;;
20441;SDS011;10380;52.102;20.614;2023-06-24T15:00:16;4.43;;;3.22;;
20441;SDS011;10380;52.102;20.614;2023-06-24T15:02:43;8.00;;;2.90;;
20441;SDS011;10380;52.102;20.614;2023-06-24T15:05:09;4.28;;;2.97;;
20441;SDS011;10380;52.102;20.614;2023-06-24T15:07:36;6.10;;;3.33;;
20441;SDS011;10380;52.102;20.614;2023-06-24T15:10:04;6.85;;;3.45;;